createdAt,value
2022-12-05T00:01:37.109Z,71.80
2022-12-05T00:04:22.607Z,77.53
2022-12-05T00:07:09.532Z,69.05
2022-12-05T00:09:57.898Z,69.18
2022-12-05T00:12:43.158Z,72.85
2022-12-05T00:15:28.555Z,63.38
2022-12-05T00:18:14.042Z,69.85
2022-12-05T00:21:02.392Z,63.15
2022-12-05T00:23:48.282Z,64.50
2022-12-05T00:26:37.066Z,66.82
2022-12-05T00:29:22.425Z,67.55
2022-12-05T00:32:08.040Z,61.78
2022-12-05T00:34:53.359Z,63.63
2022-12-05T00:37:41.367Z,65.03
2022-12-05T00:40:26.694Z,61.70
2022-12-05T00:43:13.599Z,61.15
2022-12-05T00:46:09.337Z,61.03
2022-12-05T00:48:56.679Z,62.00
2022-12-05T00:51:47.389Z,67.22
2022-12-05T00:54:33.039Z,59.33
2022-12-05T00:57:24.238Z,73.15
2022-12-05T01:00:09.825Z,64.90
2022-12-05T01:02:56.198Z,71.47
2022-12-05T01:05:41.502Z,64.43
2022-12-05T01:08:27.646Z,64.13
2022-12-05T01:11:19.803Z,65.57
2022-12-05T01:14:05.632Z,64.28
2022-12-05T01:16:53.271Z,65.28
2022-12-05T01:19:44.329Z,56.95
2022-12-05T01:22:32.590Z,67.28
2022-12-05T01:25:18.013Z,61.30
2022-12-05T01:28:03.522Z,65.63
2022-12-05T01:30:50.546Z,71.63
2022-12-05T01:33:36.004Z,62.90
2022-12-05T01:36:22.904Z,65.25
2022-12-05T01:39:09.571Z,67.28
2022-12-05T01:41:55.246Z,64.95
2022-12-05T01:44:43.390Z,66.40
2022-12-05T01:47:30.766Z,64.70
2022-12-05T01:50:16.811Z,67.25
2022-12-05T01:53:03.655Z,61.63
2022-12-05T01:55:50.744Z,61.15
2022-12-05T01:58:38.638Z,64.65
2022-12-05T02:01:24.015Z,64.03
2022-12-05T02:04:10.504Z,69.07
2022-12-05T02:06:56.158Z,68.32
2022-12-05T02:09:41.774Z,68.35
2022-12-05T02:12:27.573Z,72.13
2022-12-05T02:15:21.926Z,74.80
2022-12-05T02:18:39.093Z,73.47
2022-12-05T02:21:38.725Z,67.20
2022-12-05T02:24:48.704Z,68.07
2022-12-05T02:28:01.358Z,79.03
2022-12-05T02:31:22.152Z,66.75
2022-12-05T02:34:24.747Z,69.57
2022-12-05T02:37:21.807Z,68.85
2022-12-05T02:40:20.992Z,73.32
2022-12-05T02:43:14.529Z,73.10
2022-12-05T02:46:05.074Z,72.75
2022-12-05T02:48:55.846Z,73.40
2022-12-05T02:51:56.066Z,85.90
2022-12-05T02:54:44.687Z,71.65
2022-12-05T02:57:31.801Z,79.30
2022-12-05T03:00:23.495Z,73.50
2022-12-05T03:03:16.696Z,75.60
2022-12-05T03:06:11.418Z,81.43
2022-12-05T03:09:04.142Z,75.00
2022-12-05T03:11:56.037Z,71.38
2022-12-05T03:14:52.625Z,74.07
2022-12-05T03:17:50.534Z,76.65
2022-12-05T03:20:47.902Z,74.35
2022-12-05T03:23:46.174Z,72.25
2022-12-05T03:26:41.631Z,73.50
2022-12-05T03:29:36.526Z,71.25
2022-12-05T03:32:40.871Z,74.78
2022-12-05T03:35:35.740Z,77.22
2022-12-05T03:38:44.843Z,74.47
2022-12-05T03:41:42.977Z,71.43
2022-12-05T03:44:43.193Z,69.88
2022-12-05T03:47:51.687Z,78.68
2022-12-05T03:50:41.479Z,75.03
2022-12-05T03:53:32.586Z,68.97
2022-12-05T03:56:39.636Z,64.45
2022-12-05T03:59:38.321Z,72.95
2022-12-05T04:02:45.230Z,67.35
2022-12-05T04:05:39.219Z,77.70
2022-12-05T04:08:31.954Z,70.30
2022-12-05T04:11:22.314Z,71.82
2022-12-05T04:14:13.885Z,69.28
2022-12-05T04:17:04.701Z,68.70
2022-12-05T04:20:13.779Z,67.57
2022-12-05T04:22:59.572Z,66.05
2022-12-05T04:26:13.439Z,64.15
2022-12-05T04:29:14.630Z,63.88
2022-12-05T04:32:06.602Z,59.15
2022-12-05T04:34:59.010Z,65.10
2022-12-05T04:37:47.509Z,59.83
2022-12-05T04:40:48.710Z,64.78
2022-12-05T04:43:40.333Z,66.97
2022-12-05T04:46:25.767Z,56.15
2022-12-05T04:49:19.317Z,58.45
2022-12-05T04:52:09.405Z,54.50
2022-12-05T04:55:08.914Z,61.08
2022-12-05T04:58:18.785Z,58.05
2022-12-05T05:01:13.046Z,54.80
2022-12-05T05:04:05.818Z,53.45
2022-12-05T05:06:51.402Z,59.08
2022-12-05T05:09:37.713Z,52.88
2022-12-05T05:12:23.258Z,57.13
2022-12-05T05:15:12.561Z,55.63
2022-12-05T05:17:58.022Z,53.90
2022-12-05T05:20:43.546Z,52.55
2022-12-05T05:23:29.259Z,55.58
2022-12-05T05:26:15.034Z,54.03
2022-12-05T05:29:00.234Z,52.92
2022-12-05T05:31:46.284Z,52.90
2022-12-05T05:34:31.702Z,54.03
2022-12-05T05:37:48.595Z,54.67
2022-12-05T05:40:37.162Z,56.00
2022-12-05T05:43:25.757Z,54.90
2022-12-05T05:46:12.794Z,60.40
2022-12-05T05:48:58.299Z,60.13
2022-12-05T05:51:43.741Z,56.53
2022-12-05T05:54:32.120Z,57.33
2022-12-05T05:57:20.467Z,59.10
2022-12-05T06:00:09.096Z,60.63
2022-12-05T06:02:54.636Z,63.78
2022-12-05T06:05:40.102Z,57.28
2022-12-05T06:08:25.908Z,61.67
2022-12-05T06:11:17.829Z,58.72
2022-12-05T06:14:12.150Z,57.25
2022-12-05T06:16:57.492Z,56.55
2022-12-05T06:19:45.478Z,53.72
2022-12-05T06:22:30.730Z,63.38
2022-12-05T06:25:16.370Z,61.63
2022-12-05T06:28:01.947Z,62.38
2022-12-05T06:30:47.755Z,59.35
2022-12-05T06:33:35.909Z,55.90
2022-12-05T06:36:22.473Z,63.70
2022-12-05T06:39:08.723Z,52.15
2022-12-05T06:41:54.163Z,58.03
2022-12-05T06:44:41.817Z,61.05
2022-12-05T06:47:27.029Z,66.53
2022-12-05T06:50:12.746Z,67.70
2022-12-05T06:53:01.089Z,57.85
2022-12-05T06:56:12.108Z,58.78
2022-12-05T06:58:57.446Z,61.45
2022-12-05T07:01:43.683Z,60.83
2022-12-05T07:04:29.532Z,61.97
2022-12-05T07:07:14.832Z,61.08
2022-12-05T07:10:00.846Z,54.30
2022-12-05T07:12:46.206Z,55.80
2022-12-05T07:15:31.803Z,61.30
2022-12-05T07:18:18.071Z,50.97
2022-12-05T07:21:14.521Z,58.10
2022-12-05T07:24:00.481Z,55.67
2022-12-05T07:26:45.945Z,53.22
2022-12-05T07:29:31.690Z,52.42
2022-12-05T07:32:19.080Z,49.72
2022-12-05T07:35:04.771Z,55.10
2022-12-05T07:37:50.334Z,56.50
2022-12-05T07:40:37.638Z,47.70
2022-12-05T07:43:23.858Z,49.15
2022-12-05T07:46:11.829Z,44.10
2022-12-05T07:48:59.372Z,45.65
2022-12-05T07:51:45.007Z,46.85
2022-12-05T07:54:30.479Z,45.80
2022-12-05T07:57:15.766Z,39.75
2022-12-05T08:00:01.252Z,34.25
2022-12-05T08:02:49.374Z,37.50
2022-12-05T08:05:34.555Z,39.72
2022-12-05T08:08:20.212Z,29.27
2022-12-05T08:11:17.350Z,35.92
2022-12-05T08:14:04.379Z,31.38
2022-12-05T08:16:49.924Z,32.35
2022-12-05T08:19:39.587Z,32.38
2022-12-05T08:22:25.151Z,30.02
2022-12-05T08:25:10.972Z,29.35
2022-12-05T08:27:56.423Z,26.52
2022-12-05T08:30:42.031Z,29.60
2022-12-05T08:33:27.487Z,28.38
2022-12-05T08:36:18.342Z,30.17
2022-12-05T08:39:06.581Z,31.10
2022-12-05T08:41:51.914Z,31.98
2022-12-05T08:44:37.324Z,27.33
2022-12-05T08:47:32.521Z,26.98
2022-12-05T08:55:48.745Z,27.05
2022-12-05T08:58:35.574Z,25.55
2022-12-05T09:01:21.763Z,25.08
2022-12-05T09:04:07.833Z,26.80
2022-12-05T09:06:53.454Z,23.92
2022-12-05T09:09:38.859Z,25.42
2022-12-05T09:12:24.374Z,20.75
2022-12-05T09:15:11.985Z,21.55
2022-12-05T09:17:57.181Z,22.42
2022-12-05T09:20:42.807Z,22.42
2022-12-05T09:23:28.322Z,23.35
2022-12-05T09:26:15.959Z,25.38
2022-12-05T09:29:02.656Z,18.95
2022-12-05T09:31:51.599Z,20.42
2022-12-05T09:34:40.290Z,21.23
2022-12-05T09:37:40.655Z,19.88
2022-12-05T09:40:25.890Z,19.55
2022-12-05T09:43:35.079Z,20.38
2022-12-05T09:46:35.646Z,18.58
2022-12-05T09:49:23.337Z,19.33
2022-12-05T09:52:17.932Z,17.20
2022-12-05T09:55:14.215Z,14.77
2022-12-05T09:58:02.537Z,18.10
2022-12-05T10:00:54.167Z,13.88
2022-12-05T10:03:45.912Z,16.05
2022-12-05T10:07:14.186Z,15.90
2022-12-05T10:10:27.676Z,16.13
2022-12-05T10:13:34.703Z,13.98
2022-12-05T10:16:36.080Z,14.73
2022-12-05T10:19:34.263Z,14.02
2022-12-05T10:22:32.563Z,13.23
2022-12-05T10:25:21.806Z,12.32
2022-12-05T10:28:18.346Z,17.80
2022-12-05T10:31:09.839Z,13.63
2022-12-05T10:34:10.318Z,14.25
2022-12-05T10:37:02.444Z,13.75
2022-12-05T10:39:49.660Z,13.50
2022-12-05T10:42:42.694Z,14.68
2022-12-05T10:45:28.026Z,14.40
2022-12-05T10:48:15.898Z,13.70
2022-12-05T10:51:01.619Z,12.85
2022-12-05T10:53:49.800Z,15.55
2022-12-05T10:56:43.013Z,14.77
2022-12-05T10:59:47.863Z,15.63
2022-12-05T11:02:36.898Z,14.20
2022-12-05T11:05:31.411Z,11.40
2022-12-05T11:09:03.248Z,14.43
2022-12-05T11:11:40.577Z,12.93
2022-12-05T11:14:27.409Z,12.05
2022-12-05T11:17:25.736Z,12.45
2022-12-05T11:20:20.271Z,17.27
2022-12-05T11:23:23.244Z,11.07
2022-12-05T11:26:36.796Z,11.85
2022-12-05T11:29:34.951Z,11.63
2022-12-05T11:32:24.130Z,16.17
2022-12-05T11:35:26.080Z,11.32
2022-12-05T11:38:13.049Z,10.75
2022-12-05T11:41:35.855Z,11.25
2022-12-05T11:44:33.214Z,10.00
2022-12-05T11:47:30.882Z,11.43
2022-12-05T11:50:44.401Z,11.95
2022-12-05T11:53:55.995Z,11.93
2022-12-05T11:57:13.917Z,11.43
2022-12-05T12:00:10.674Z,12.88
2022-12-05T12:03:31.367Z,9.05
2022-12-05T12:06:24.432Z,9.43
2022-12-05T12:09:31.291Z,10.65
2022-12-05T12:12:23.753Z,11.30
2022-12-05T12:15:54.560Z,14.82
2022-12-05T12:19:17.874Z,10.02
2022-12-05T12:22:18.539Z,12.57
2022-12-05T12:25:31.746Z,12.82
2022-12-05T12:29:03.496Z,12.80
2022-12-05T12:31:51.895Z,11.90
2022-12-05T12:35:03.113Z,10.82
2022-12-05T12:38:03.962Z,13.52
2022-12-05T12:40:55.573Z,12.07
2022-12-05T12:43:59.834Z,17.20
2022-12-05T12:46:52.663Z,18.55
2022-12-05T12:50:31.612Z,14.63
2022-12-05T12:53:56.011Z,15.43
2022-12-05T12:56:48.039Z,14.75
2022-12-05T12:59:49.126Z,11.77
2022-12-05T13:02:58.662Z,13.45
2022-12-05T13:06:18.957Z,14.15
2022-12-05T13:09:28.652Z,16.75
2022-12-05T13:12:17.227Z,13.13
2022-12-05T13:15:08.091Z,18.45
2022-12-05T13:17:54.917Z,16.13
2022-12-05T13:20:40.807Z,14.00
2022-12-05T13:23:45.241Z,15.52
2022-12-05T13:26:32.851Z,14.63
2022-12-05T13:29:37.449Z,15.68
2022-12-05T13:32:32.805Z,15.47
2022-12-05T13:35:47.684Z,17.67
2022-12-05T13:38:57.314Z,16.08
2022-12-05T13:42:07.405Z,14.88
2022-12-05T13:45:04.969Z,18.77
2022-12-05T13:47:59.600Z,17.63
2022-12-05T13:50:58.839Z,19.95
2022-12-05T13:53:48.591Z,18.73
2022-12-05T13:56:53.185Z,24.15
2022-12-05T14:00:10.360Z,19.33
2022-12-05T14:03:04.857Z,20.30
2022-12-05T14:05:54.725Z,18.50
2022-12-05T14:08:39.868Z,22.98
2022-12-05T14:11:25.792Z,18.45
2022-12-05T14:14:13.377Z,16.67
2022-12-05T14:17:03.083Z,17.70
2022-12-05T14:20:17.360Z,17.90
2022-12-05T14:23:39.575Z,17.00
2022-12-05T14:26:51.018Z,26.00
2022-12-05T14:30:12.654Z,15.20
2022-12-05T14:33:01.727Z,15.57
2022-12-05T14:35:51.502Z,18.00
2022-12-05T14:38:40.421Z,20.42
2022-12-05T14:41:34.773Z,14.45
2022-12-05T14:44:24.510Z,19.67
2022-12-05T14:47:20.722Z,20.65
2022-12-05T14:50:45.652Z,14.55
2022-12-05T14:53:43.078Z,16.30
2022-12-05T14:56:28.512Z,14.18
2022-12-05T14:59:27.697Z,15.63
2022-12-05T15:02:27.701Z,15.07
2022-12-05T15:05:33.077Z,15.68
2022-12-05T15:08:20.491Z,14.50
2022-12-05T15:11:05.838Z,12.07
2022-12-05T15:13:53.144Z,11.02
2022-12-05T15:16:47.982Z,15.40
2022-12-05T15:19:51.021Z,12.68
2022-12-05T15:22:37.972Z,14.05
2022-12-05T15:25:31.290Z,15.02
2022-12-05T15:28:19.998Z,16.40
2022-12-05T15:31:08.390Z,12.48
2022-12-05T15:33:58.489Z,14.20
2022-12-05T15:36:50.715Z,18.38
2022-12-05T15:39:59.293Z,17.50
2022-12-05T15:42:46.038Z,17.30
2022-12-05T15:45:31.805Z,11.02
2022-12-05T15:48:22.713Z,12.27
2022-12-05T15:51:08.790Z,16.55
2022-12-05T15:54:04.069Z,15.82
2022-12-05T15:57:09.666Z,14.80
2022-12-05T16:00:03.276Z,16.92
2022-12-05T16:03:18.239Z,13.43
2022-12-05T16:06:16.738Z,13.80
2022-12-05T16:09:11.561Z,13.93
2022-12-05T16:12:06.293Z,11.68
2022-12-05T16:15:00.256Z,11.88
2022-12-05T16:17:49.036Z,14.70
2022-12-05T16:20:36.610Z,11.93
2022-12-05T16:23:30.004Z,12.23
2022-12-05T16:26:24.493Z,13.85
2022-12-05T16:29:28.096Z,15.50
2022-12-05T16:32:24.653Z,13.48
2022-12-05T16:35:43.191Z,16.75
2022-12-05T16:38:32.059Z,15.65
2022-12-05T16:41:18.941Z,15.02
2022-12-05T16:44:13.052Z,17.55
2022-12-05T16:47:01.792Z,21.63
2022-12-05T16:49:47.430Z,21.83
2022-12-05T16:52:32.770Z,21.80
2022-12-05T16:55:18.187Z,15.23
2022-12-05T16:58:11.646Z,17.38
2022-12-05T17:01:06.534Z,13.35
2022-12-05T17:03:56.280Z,17.17
2022-12-05T17:06:41.406Z,14.93
2022-12-05T17:09:26.946Z,18.65
2022-12-05T17:12:22.565Z,13.85
2022-12-05T17:15:20.248Z,19.05
2022-12-05T17:18:16.948Z,15.38
2022-12-05T17:21:03.104Z,19.65
2022-12-05T17:23:48.671Z,14.43
2022-12-05T17:26:34.025Z,12.50
2022-12-05T17:29:19.564Z,13.15
2022-12-05T17:32:05.298Z,14.82
2022-12-05T17:34:50.982Z,15.77
2022-12-05T17:37:36.190Z,12.30
2022-12-05T17:40:21.642Z,11.20
2022-12-05T17:43:09.876Z,12.93
2022-12-05T17:45:55.201Z,10.95
2022-12-05T17:48:45.591Z,9.70
2022-12-05T17:51:33.571Z,11.02
2022-12-05T17:54:22.167Z,11.10
2022-12-05T17:57:07.445Z,11.30
2022-12-05T17:59:53.217Z,12.85
2022-12-05T18:02:42.290Z,9.35
2022-12-05T18:05:28.366Z,12.35
2022-12-05T18:08:16.617Z,10.38
2022-12-05T18:11:02.094Z,11.75
2022-12-05T18:13:47.850Z,13.80
2022-12-05T18:16:33.141Z,9.93
2022-12-05T18:19:18.683Z,9.05
2022-12-05T18:22:04.434Z,8.05
2022-12-05T18:24:50.050Z,9.48
2022-12-05T18:27:36.404Z,7.85
2022-12-05T18:30:23.949Z,10.30
2022-12-05T18:33:09.361Z,12.18
2022-12-05T18:35:57.957Z,8.65
2022-12-05T18:38:49.192Z,8.20
2022-12-05T18:41:37.246Z,12.05
2022-12-05T18:44:25.601Z,9.05
2022-12-05T18:47:11.174Z,9.50
2022-12-05T18:49:57.378Z,8.65
2022-12-05T18:52:42.946Z,7.13
2022-12-05T18:55:51.800Z,8.32
2022-12-05T18:58:34.235Z,7.03
2022-12-05T19:01:21.007Z,7.20
2022-12-05T19:04:13.206Z,10.32
2022-12-05T19:07:01.030Z,10.82
2022-12-05T19:09:46.677Z,8.48
2022-12-05T19:12:31.977Z,7.93
2022-12-05T19:15:17.461Z,11.95
2022-12-05T19:18:03.288Z,11.93
2022-12-05T19:20:52.309Z,12.05
2022-12-05T19:23:37.789Z,12.43
2022-12-05T19:26:26.523Z,12.85
2022-12-05T19:29:13.286Z,16.63
2022-12-05T19:32:01.448Z,12.40
2022-12-05T19:34:48.374Z,10.60
2022-12-05T19:37:34.207Z,13.57
2022-12-05T19:40:19.644Z,8.98
2022-12-05T19:43:05.288Z,12.07
2022-12-05T19:45:52.434Z,9.45
2022-12-05T19:48:38.289Z,12.05
2022-12-05T19:51:25.229Z,8.63
2022-12-05T19:54:13.741Z,14.25
2022-12-05T19:57:00.683Z,10.82
2022-12-05T19:59:46.346Z,10.07
2022-12-05T20:02:31.908Z,10.98
2022-12-05T20:05:17.475Z,10.18
2022-12-05T20:08:02.837Z,11.68
2022-12-05T20:10:49.839Z,14.90
2022-12-05T20:13:52.313Z,10.88
2022-12-05T20:16:37.775Z,9.40
2022-12-05T20:19:23.754Z,10.32
2022-12-05T20:22:13.177Z,17.63
2022-12-05T20:24:58.782Z,12.60
2022-12-05T20:27:44.275Z,10.32
2022-12-05T20:30:33.209Z,12.50
2022-12-05T20:33:18.610Z,11.40
2022-12-05T20:36:28.262Z,12.30
2022-12-05T20:39:15.994Z,13.35
2022-12-05T20:42:01.571Z,14.90
2022-12-05T20:44:47.065Z,16.67
2022-12-05T20:47:32.674Z,11.75
2022-12-05T20:50:18.793Z,11.90
2022-12-05T20:53:03.966Z,13.55
2022-12-05T20:55:49.517Z,16.33
2022-12-05T20:58:36.640Z,11.80
2022-12-05T21:01:23.843Z,13.85
2022-12-05T21:04:11.345Z,15.02
2022-12-05T21:06:57.253Z,11.30
2022-12-05T21:09:42.828Z,13.05
2022-12-05T21:12:28.174Z,12.38
2022-12-05T21:15:19.755Z,11.85
2022-12-05T21:18:08.185Z,14.70
2022-12-05T21:20:58.485Z,21.90
2022-12-05T21:23:51.933Z,14.63
2022-12-05T21:26:38.059Z,10.48
2022-12-05T21:29:23.414Z,8.68
2022-12-05T21:32:09.911Z,15.85
2022-12-05T21:34:55.127Z,13.80
2022-12-05T21:37:40.873Z,14.57
2022-12-05T21:40:27.165Z,12.10
2022-12-05T21:43:30.956Z,16.42
2022-12-05T21:46:16.679Z,12.50
2022-12-05T21:49:01.932Z,14.18
2022-12-05T21:51:48.312Z,14.15
2022-12-05T21:54:34.413Z,13.48
2022-12-05T21:57:20.394Z,11.10
2022-12-05T22:00:08.113Z,11.82
2022-12-05T22:02:54.801Z,15.23
2022-12-05T22:05:40.885Z,17.30
2022-12-05T22:08:26.303Z,18.52
2022-12-05T22:11:18.005Z,20.35
2022-12-05T22:14:03.604Z,19.90
2022-12-05T22:16:52.068Z,20.73
2022-12-05T22:19:37.441Z,22.05
2022-12-05T22:22:24.174Z,22.88
2022-12-05T22:25:09.762Z,20.90
2022-12-05T22:27:58.126Z,18.88
2022-12-05T22:30:47.252Z,19.63
2022-12-05T22:33:35.554Z,18.55
2022-12-05T22:36:21.342Z,22.42
2022-12-05T22:39:06.846Z,16.98
2022-12-05T22:41:52.051Z,14.35
2022-12-05T22:44:37.868Z,26.42
2022-12-05T22:47:23.231Z,15.10
2022-12-05T22:50:08.972Z,21.73
2022-12-05T22:52:54.727Z,19.83
2022-12-05T22:55:40.185Z,15.90
2022-12-05T22:58:25.788Z,14.43
2022-12-05T23:01:17.909Z,21.17
2022-12-05T23:04:09.899Z,22.30
2022-12-05T23:06:55.311Z,15.40
2022-12-05T23:09:40.789Z,19.48
2022-12-05T23:12:26.561Z,17.52
2022-12-05T23:15:13.403Z,17.40
2022-12-05T23:17:58.991Z,21.23
2022-12-05T23:20:44.637Z,20.92
2022-12-05T23:23:30.858Z,20.63
2022-12-05T23:26:16.879Z,24.27
2022-12-05T23:29:05.265Z,20.70
2022-12-05T23:31:50.749Z,20.95
2022-12-05T23:34:36.216Z,22.10
2022-12-05T23:37:21.550Z,28.27
2022-12-05T23:40:07.736Z,25.52
2022-12-05T23:42:55.273Z,23.45
2022-12-05T23:45:43.246Z,22.67
2022-12-05T23:48:29.342Z,22.55
2022-12-05T23:51:27.040Z,24.70
2022-12-05T23:54:12.994Z,30.80
2022-12-05T23:57:00.529Z,22.13
2022-12-05T23:59:49.328Z,24.33
